CheckWX is a tool to help pilots better visualize weather data.  It is not intended as a substitute for an official pre-flight weather briefing.

15:45:47 UTC

KHEY METAR
Hanchey AHP (Fort Rucker) Heliport
Fort Rucker Ozark, Alabama, USA
Current

48 mins ago

KHEY 171458Z AUTO 04006KT 10SM CLR 15/08 A3003 RMK AO2 SLP170 T01460076 51012
Observed
Oct-17 @ 14:58 UTC
Wind
  • 040° at 6 KTS
Visibility
10 SM
Flight Rules
VFR
Cloud Levels
  • Clear skies
Temperature
15°C / 59°F
Dewpoint
C / 46°F
Humidity
63%
Altimeter
30.03" Hg
Pressure
1016.92 hPa
Previous

2 hours ago

KHEY 171358Z AUTO 01003KT 10SM CLR 13/09 A3003 RMK AO2 SLP170 T01310088
Observed
Oct-17 @ 13:58 UTC
Wind
  • 010° at 3 KTS
Visibility
10 SM
Flight Rules
VFR
Cloud Levels
  • Clear skies
Temperature
13°C / 55°F
Dewpoint
C / 48°F
Humidity
77%
Altimeter
30.03" Hg
Pressure
1016.92 hPa
Previous

2 hours ago

KHEY 171343Z AUTO 03004KT 10SM CLR 13/09 A3003 RMK AO2 SLP170
Observed
Oct-17 @ 13:43 UTC
Wind
  • 030° at 4 KTS
Visibility
10 SM
Flight Rules
VFR
Cloud Levels
  • Clear skies
Temperature
13°C / 55°F
Dewpoint
C / 48°F
Humidity
77%
Altimeter
30.03" Hg
Pressure
1016.92 hPa